Time;durP1;ratioP1;P1;durP2;ratioP2;P2;SDS_P1;SDS_P2;PMS_P1;PMS_P2;Temp;Humidity;BMP_temperature;BMP_pressure;BME280_temperature;BME280_humidity;BME280_pressure;Samples;Min_cycle;Max_cycle;Signal;HPM_P1;HPM_P2
2022/05/31 00:02:43;;;;;;;;;;;;;;;;;;6284464;28;20040;-60
2022/05/31 00:05:44;;;;;;;7.13;4.50;;;;;;;;;;6284354;28;20756;-60
2022/05/31 00:08:45;;;;;;;8.57;4.68;;;;;;;;;;6286174;28;20040;-60
2022/05/31 00:11:47;;;;;;;6.85;4.22;;;;;;;;;;6284721;28;20079;-60
2022/05/31 00:14:48;;;;;;;8.52;4.80;;;;;;;;;;6283782;28;20786;-59
2022/05/31 00:17:48;;;;;;;9.45;5.15;;;;;;;;;;6283821;28;20048;-59
2022/05/31 00:20:49;;;;;;;9.27;5.40;;;;;;;;;;6284586;28;20103;-60
2022/05/31 00:23:49;;;;;;;7.22;4.68;;;;;;;;;;6285470;28;20069;-59
2022/05/31 00:26:50;;;;;;;8.10;4.80;;;;;;;;;;6283936;28;20041;-59
2022/05/31 00:29:51;;;;;;;8.40;5.20;;;;;;;;;;6286431;28;20052;-59
2022/05/31 00:32:52;;;;;;;9.65;5.55;;;;;;;;;;6289283;28;20059;-59
2022/05/31 00:35:53;;;;;;;10.90;5.60;;;;;;;;;;6291523;28;20076;-59
2022/05/31 00:38:55;;;;;;;8.70;5.63;;;;;;;;;;6289728;28;20044;-59
2022/05/31 00:42:14;;;;;;;10.75;6.15;;;;;;;;;;6286615;28;20053;-59
2022/05/31 00:45:15;;;;;;;10.23;5.75;;;;;;;;;;6285726;28;20496;-59
2022/05/31 00:48:36;;;;;;;11.50;6.90;;;;;;;;;;6289356;28;20078;-60
2022/05/31 00:51:46;;;;;;;9.68;6.10;;;;;;;;;;6287431;28;20526;-60
2022/05/31 00:55:07;;;;;;;11.82;6.47;;;;;;;;;;6289687;28;20040;-59
2022/05/31 00:58:14;;;;;;;9.73;6.00;;;;;;;;;;6289076;28;20489;-59
2022/05/31 01:01:16;;;;;;;11.93;6.05;;;;;;;;;;6266691;28;20148;-60
2022/05/31 01:04:24;;;;;;;11.23;6.43;;;;;;;;;;6273189;28;20083;-59
2022/05/31 01:07:24;;;;;;;12.55;6.53;;;;;;;;;;6264164;28;20127;-61
2022/05/31 01:10:25;;;;;;;10.70;6.47;;;;;;;;;;6260916;28;20105;-61
2022/05/31 01:13:28;;;;;;;11.45;6.85;;;;;;;;;;6277374;28;20071;-62
2022/05/31 01:16:28;;;;;;;12.00;6.60;;;;;;;;;;6258154;28;20065;-60
2022/05/31 01:22:57;;;;;;;11.30;6.97;;;;;;;;;;6274433;28;20133;-59
2022/05/31 01:26:03;;;;;;;13.85;7.20;;;;;;;;;;6275413;28;20088;-60
2022/05/31 01:29:19;;;;;;;12.65;7.20;;;;;;;;;;6281853;28;20044;-61
2022/05/31 01:32:20;;;;;;;16.05;8.02;;;;;;;;;;6273649;28;20040;-59
2022/05/31 01:35:30;;;;;;;15.57;8.27;;;;;;;;;;6268193;28;20301;-60
2022/05/31 01:38:42;;;;;;;15.57;8.80;;;;;;;;;;6271265;28;20037;-59
2022/05/31 01:41:55;;;;;;;15.90;9.10;;;;;;;;;;6262362;28;20045;-59
2022/05/31 01:45:02;;;;;;;16.33;9.32;;;;;;;;;;6277309;28;20052;-61
2022/05/31 01:48:05;;;;;;;13.98;8.55;;;;;;;;;;6276039;28;20080;-59
2022/05/31 01:51:06;;;;;;;13.82;8.68;;;;;;;;;;6269185;28;20041;-59
2022/05/31 01:54:09;;;;;;;14.52;8.27;;;;;;;;;;6273989;28;20103;-57
2022/05/31 01:57:12;;;;;;;13.18;8.23;;;;;;;;;;6274263;28;20078;-61
2022/05/31 02:00:14;;;;;;;15.93;9.40;;;;;;;;;;6279736;28;20064;-61
2022/05/31 02:03:16;;;;;;;15.27;9.03;;;;;;;;;;6287578;28;20048;-60
2022/05/31 02:06:27;;;;;;;19.15;9.82;;;;;;;;;;6289026;28;20520;-61
2022/05/31 02:09:27;;;;;;;15.57;8.82;;;;;;;;;;6285340;28;20458;-60
2022/05/31 02:12:30;;;;;;;17.35;9.55;;;;;;;;;;6286204;28;20063;-61
2022/05/31 02:15:31;;;;;;;17.48;10.88;;;;;;;;;;6288715;28;20059;-61
2022/05/31 02:22:00;;;;;;;20.60;11.65;;;;;;;;;;6283732;28;20495;-59
2022/05/31 02:25:01;;;;;;;16.63;10.85;;;;;;;;;;6285954;28;20037;-61
2022/05/31 02:28:02;;;;;;;17.70;11.20;;;;;;;;;;6286378;28;20472;-61
2022/05/31 02:31:03;;;;;;;16.73;10.57;;;;;;;;;;6286257;28;20454;-61
2022/05/31 02:34:05;;;;;;;17.48;10.50;;;;;;;;;;6287358;28;20060;-59
2022/05/31 02:37:05;;;;;;;;;;;;;;;;;;6289457;28;20575;-60
2022/05/31 02:40:07;;;;;;;15.80;9.85;;;;;;;;;;6286061;28;19924;-62
2022/05/31 02:43:09;;;;;;;18.40;10.65;;;;;;;;;;6285514;28;20091;-62
2022/05/31 02:46:09;;;;;;;15.30;9.67;;;;;;;;;;6283098;28;20114;-61
2022/05/31 02:49:11;;;;;;;18.60;10.75;;;;;;;;;;6288775;28;20052;-61
2022/05/31 02:52:11;;;;;;;18.47;9.73;;;;;;;;;;6286603;28;20411;-61
2022/05/31 02:55:12;;;;;;;16.00;10.25;;;;;;;;;;6287746;28;20048;-61
2022/05/31 02:58:13;;;;;;;20.30;10.68;;;;;;;;;;6288320;28;20478;-60
2022/05/31 03:01:18;;;;;;;15.82;9.98;;;;;;;;;;6287745;28;20053;-61
2022/05/31 03:04:20;;;;;;;17.08;9.80;;;;;;;;;;6284181;28;20053;-61
2022/05/31 03:07:20;;;;;;;16.42;9.82;;;;;;;;;;6285417;28;20492;-61
2022/05/31 03:10:21;;;;;;;17.42;9.85;;;;;;;;;;6285735;28;20043;-61
2022/05/31 03:13:27;;;;;;;17.13;10.30;;;;;;;;;;6287142;28;20068;-61
2022/05/31 03:16:27;;;;;;;19.25;10.07;;;;;;;;;;6287981;28;20029;-61
2022/05/31 03:19:34;;;;;;;16.77;9.70;;;;;;;;;;6284929;28;20067;-60
2022/05/31 03:22:39;;;;;;;17.50;9.88;;;;;;;;;;6287175;28;20079;-61
2022/05/31 03:25:41;;;;;;;14.20;9.45;;;;;;;;;;6289121;28;20068;-60
2022/05/31 03:28:43;;;;;;;16.45;10.20;;;;;;;;;;6290445;28;20093;-60
2022/05/31 03:31:43;;;;;;;16.30;10.90;;;;;;;;;;6286759;28;20052;-60
2022/05/31 03:34:44;;;;;;;20.98;13.45;;;;;;;;;;6287023;28;20309;-61
2022/05/31 03:37:45;;;;;;;15.90;9.95;;;;;;;;;;6287820;28;20055;-61
2022/05/31 03:40:57;;;;;;;52.55;10.98;;;;;;;;;;6287333;28;20628;-61
2022/05/31 03:43:58;;;;;;;81.50;11.90;;;;;;;;;;6286834;28;20041;-61
2022/05/31 03:47:01;;;;;;;33.45;9.52;;;;;;;;;;6290693;28;20123;-60
2022/05/31 03:50:02;;;;;;;14.70;9.00;;;;;;;;;;6286958;28;20194;-60
2022/05/31 03:53:02;;;;;;;16.83;9.70;;;;;;;;;;6289869;28;20056;-60
2022/05/31 03:56:09;;;;;;;14.35;9.00;;;;;;;;;;6285263;28;20079;-61
2022/05/31 03:59:10;;;;;;;14.95;9.43;;;;;;;;;;6283640;28;20056;-61
2022/05/31 04:02:10;;;;;;;14.30;9.60;;;;;;;;;;6286163;28;20491;-61
2022/05/31 04:05:13;;;;;;;16.80;10.30;;;;;;;;;;6290060;28;20174;-61
2022/05/31 04:08:13;;;;;;;;;;;;;;;;;;6290488;28;20041;-61
2022/05/31 04:11:14;;;;;;;20.63;10.35;;;;;;;;;;6292034;28;20015;-61
2022/05/31 04:14:15;;;;;;;18.63;11.00;;;;;;;;;;6292805;28;20190;-60
2022/05/31 04:17:16;;;;;;;19.07;11.57;;;;;;;;;;6273269;28;20447;-60
2022/05/31 04:20:16;;;;;;;18.95;10.88;;;;;;;;;;6288912;28;20044;-58
2022/05/31 04:26:40;;;;;;;22.05;12.85;;;;;;;;;;6288433;28;20094;-59
2022/05/31 04:29:41;;;;;;;27.35;14.23;;;;;;;;;;6289544;28;20105;-60
2022/05/31 04:32:41;;;;;;;21.95;12.98;;;;;;;;;;6297031;28;20093;-59
2022/05/31 04:35:42;;;;;;;26.60;13.85;;;;;;;;;;6289228;28;20484;-59
2022/05/31 04:38:43;;;;;;;25.70;13.27;;;;;;;;;;6289491;28;20040;-60
2022/05/31 04:41:44;;;;;;;33.33;15.57;;;;;;;;;;6292052;28;20072;-60
2022/05/31 04:44:44;;;;;;;38.97;16.92;;;;;;;;;;6289057;28;20136;-60
2022/05/31 04:47:45;;;;;;;36.53;17.60;;;;;;;;;;6286559;28;20139;-60
2022/05/31 04:50:47;;;;;;;44.05;18.42;;;;;;;;;;6288987;28;20077;-60
2022/05/31 04:53:48;;;;;;;35.23;17.07;;;;;;;;;;6286867;28;20052;-60
2022/05/31 04:56:49;;;;;;;32.50;17.40;;;;;;;;;;6287516;28;20041;-60
2022/05/31 04:59:49;;;;;;;29.08;14.93;;;;;;;;;;6288348;28;20082;-59
2022/05/31 05:02:50;;;;;;;29.33;15.32;;;;;;;;;;6290281;28;20389;-59
2022/05/31 05:05:50;;;;;;;29.58;15.43;;;;;;;;;;6295941;28;20177;-59
2022/05/31 05:08:51;;;;;;;29.17;16.30;;;;;;;;;;6286744;28;20037;-59
2022/05/31 05:11:51;;;;;;;35.28;17.42;;;;;;;;;;6289332;28;20074;-62
2022/05/31 05:14:52;;;;;;;33.75;17.55;;;;;;;;;;6287470;28;20114;-60
2022/05/31 05:17:53;;;;;;;36.80;19.05;;;;;;;;;;6285418;28;20048;-59
2022/05/31 05:20:54;;;;;;;37.75;19.20;;;;;;;;;;6292067;28;20109;-59
2022/05/31 05:23:55;;;;;;;38.85;20.02;;;;;;;;;;6290941;28;20056;-60
2022/05/31 05:26:55;;;;;;;31.63;18.27;;;;;;;;;;6291539;28;20071;-59
2022/05/31 05:33:15;;;;;;;32.65;18.17;;;;;;;;;;6287811;28;20084;-59
2022/05/31 05:36:15;;;;;;;34.55;18.02;;;;;;;;;;6287063;28;20051;-59
2022/05/31 05:39:16;;;;;;;32.60;19.35;;;;;;;;;;6287533;28;20419;-59
2022/05/31 05:42:16;;;;;;;37.42;20.52;;;;;;;;;;6289381;28;20128;-59
2022/05/31 05:45:18;;;;;;;29.05;17.90;;;;;;;;;;6277369;28;20052;-58
2022/05/31 05:48:19;;;;;;;35.60;19.50;;;;;;;;;;6272502;28;20084;-59
2022/05/31 05:51:25;;;;;;;38.67;22.25;;;;;;;;;;6274924;28;20090;-59
2022/05/31 05:54:26;;;;;;;37.38;19.25;;;;;;;;;;6274318;28;20990;-59
2022/05/31 05:57:27;;;;;;;31.15;16.88;;;;;;;;;;6274151;28;20414;-58
2022/05/31 06:00:28;;;;;;;33.20;18.40;;;;;;;;;;6275892;28;20127;-58
2022/05/31 06:04:02;;;;;;;29.52;16.95;;;;;;;;;;6276916;28;20055;-59
2022/05/31 06:07:11;;;;;;;26.27;14.18;;;;;;;;;;6275259;28;20146;-59
2022/05/31 06:10:12;;;;;;;25.10;14.32;;;;;;;;;;6275604;28;20633;-59
2022/05/31 06:13:26;;;;;;;27.70;14.77;;;;;;;;;;6277549;28;20047;-59
2022/05/31 06:16:32;;;;;;;20.95;13.85;;;;;;;;;;6276004;28;21184;-59
2022/05/31 06:19:36;;;;;;;25.50;15.93;;;;;;;;;;6273156;28;20411;-59
2022/05/31 06:22:40;;;;;;;28.85;15.50;;;;;;;;;;6275630;28;20135;-59
2022/05/31 06:25:41;;;;;;;29.88;16.02;;;;;;;;;;6257596;28;20075;-59
2022/05/31 06:28:43;;;;;;;23.20;11.85;;;;;;;;;;6277769;28;20080;-60
2022/05/31 06:31:44;;;;;;;22.98;11.88;;;;;;;;;;6277675;28;20064;-59
2022/05/31 06:34:45;;;;;;;21.50;11.68;;;;;;;;;;6275864;28;20056;-59
2022/05/31 06:37:46;;;;;;;20.23;10.97;;;;;;;;;;6279616;28;20040;-59
2022/05/31 06:40:46;;;;;;;20.67;11.68;;;;;;;;;;6287346;28;20534;-60
2022/05/31 06:43:47;;;;;;;23.25;11.70;;;;;;;;;;6287687;28;20048;-60
2022/05/31 06:46:47;;;;;;;19.73;10.88;;;;;;;;;;6287885;28;20053;-58
2022/05/31 06:49:48;;;;;;;18.02;11.05;;;;;;;;;;6285398;28;20487;-58
2022/05/31 06:59:27;;;;;;;23.95;12.50;;;;;;;;;;6284907;28;20126;-59
2022/05/31 07:02:27;;;;;;;21.88;12.15;;;;;;;;;;6285828;28;20052;-60
2022/05/31 07:05:29;;;;;;;21.77;11.82;;;;;;;;;;6286916;28;20377;-60
2022/05/31 07:08:30;;;;;;;20.08;10.50;;;;;;;;;;6285901;28;20448;-60
2022/05/31 07:11:30;;;;;;;18.38;11.40;;;;;;;;;;6286912;28;20032;-60
2022/05/31 07:14:31;;;;;;;16.63;10.68;;;;;;;;;;6286975;28;20672;-59
2022/05/31 07:17:32;;;;;;;18.60;11.02;;;;;;;;;;6286492;28;20047;-59
2022/05/31 07:20:34;;;;;;;;;;;;;;;;;;6286304;28;20033;-59
2022/05/31 07:23:34;;;;;;;14.98;10.18;;;;;;;;;;6286225;28;20766;-60
2022/05/31 07:26:35;;;;;;;20.17;10.85;;;;;;;;;;6285409;28;20123;-59
2022/05/31 07:29:36;;;;;;;18.05;11.23;;;;;;;;;;6286523;28;20518;-60
2022/05/31 07:32:36;;;;;;;16.38;10.45;;;;;;;;;;6287083;28;20507;-60
2022/05/31 07:35:39;;;;;;;18.00;10.77;;;;;;;;;;6286735;28;20048;-61
2022/05/31 07:38:41;;;;;;;20.20;10.40;;;;;;;;;;6286731;28;20060;-59
2022/05/31 07:41:42;;;;;;;15.80;10.65;;;;;;;;;;6284537;28;20059;-60
2022/05/31 07:44:43;;;;;;;17.50;10.85;;;;;;;;;;6289459;28;20070;-59
2022/05/31 07:47:44;;;;;;;15.80;10.40;;;;;;;;;;6291002;28;20053;-60
2022/05/31 07:50:45;;;;;;;14.18;9.88;;;;;;;;;;6285178;28;20056;-61
2022/05/31 07:53:45;;;;;;;16.15;10.32;;;;;;;;;;6287342;28;20496;-59
2022/05/31 07:56:47;;;;;;;15.68;9.73;;;;;;;;;;6287685;28;20594;-60
2022/05/31 07:59:48;;;;;;;;;;;;;;;;;;6288208;28;20102;-59
2022/05/31 08:02:48;;;;;;;16.70;9.57;;;;;;;;;;6286833;28;20011;-60
2022/05/31 08:05:49;;;;;;;17.23;10.65;;;;;;;;;;6286526;28;20052;-60
2022/05/31 08:08:50;;;;;;;18.45;10.70;;;;;;;;;;6286115;28;20745;-60
2022/05/31 08:11:51;;;;;;;16.95;9.80;;;;;;;;;;6284910;28;20099;-60
2022/05/31 08:14:51;;;;;;;14.90;9.20;;;;;;;;;;6286384;28;20523;-60
2022/05/31 08:17:52;;;;;;;11.93;8.55;;;;;;;;;;6286451;28;20079;-59
2022/05/31 08:21:00;;;;;;;10.43;7.68;;;;;;;;;;6286739;28;20139;-60
2022/05/31 08:24:06;;;;;;;12.00;7.15;;;;;;;;;;6285162;28;20479;-59
2022/05/31 08:27:07;;;;;;;13.75;8.10;;;;;;;;;;6285880;28;20080;-60
2022/05/31 08:30:08;;;;;;;10.73;7.32;;;;;;;;;;6285618;28;20522;-60
2022/05/31 08:33:09;;;;;;;13.98;8.30;;;;;;;;;;6284221;28;20045;-60
2022/05/31 08:36:10;;;;;;;10.18;6.00;;;;;;;;;;6286535;28;20047;-60
2022/05/31 08:39:11;;;;;;;8.37;5.67;;;;;;;;;;6284211;28;20495;-59
2022/05/31 08:42:16;;;;;;;9.75;6.47;;;;;;;;;;6284140;28;20037;-61
2022/05/31 08:45:55;;;;;;;9.80;6.18;;;;;;;;;;6282257;28;20551;-60
2022/05/31 08:49:06;;;;;;;9.93;5.97;;;;;;;;;;6286867;28;20083;-60
2022/05/31 08:52:17;;;;;;;10.17;5.90;;;;;;;;;;6289332;28;20052;-60
2022/05/31 08:59:01;;;;;;;8.80;5.97;;;;;;;;;;6287738;28;20056;-60
2022/05/31 09:02:10;;;;;;;8.30;4.72;;;;;;;;;;6291003;28;20090;-60
2022/05/31 09:05:15;;;;;;;8.50;4.40;;;;;;;;;;6285001;28;20048;-57
2022/05/31 09:08:24;;;;;;;9.25;5.57;;;;;;;;;;6288854;28;20578;-61
2022/05/31 09:11:32;;;;;;;10.23;6.20;;;;;;;;;;6288383;28;20044;-60
2022/05/31 09:14:44;;;;;;;8.02;5.53;;;;;;;;;;6291175;28;20044;-59
2022/05/31 09:18:06;;;;;;;10.52;5.63;;;;;;;;;;6288838;28;20267;-59
2022/05/31 09:35:43;;;;;;;5.15;2.90;;;;;;;;;;6287946;27;20398;-60
2022/05/31 09:38:58;;;;;;;5.50;3.17;;;;;;;;;;6275064;28;20072;-61
2022/05/31 09:42:17;;;;;;;5.75;3.40;;;;;;;;;;6281749;28;20052;-60
2022/05/31 09:45:20;;;;;;;4.82;2.90;;;;;;;;;;6276881;28;20036;-62
2022/05/31 09:48:21;;;;;;;6.45;3.90;;;;;;;;;;6279980;28;20044;-61
2022/05/31 09:51:21;;;;;;;6.37;3.70;;;;;;;;;;6280830;28;20064;-61
2022/05/31 09:57:41;;;;;;;4.72;3.40;;;;;;;;;;6277739;28;20075;-61
2022/05/31 10:01:04;;;;;;;5.70;3.50;;;;;;;;;;6310576;28;20062;-61
2022/05/31 10:04:10;;;;;;;6.88;4.05;;;;;;;;;;6276382;28;20110;-60
2022/05/31 10:07:11;;;;;;;6.45;3.97;;;;;;;;;;6277690;28;20044;-61
2022/05/31 10:10:15;;;;;;;5.00;3.20;;;;;;;;;;6278982;28;20045;-61
2022/05/31 10:13:35;;;;;;;5.13;3.70;;;;;;;;;;6279725;28;20045;-61
2022/05/31 10:16:37;;;;;;;7.40;3.97;;;;;;;;;;6279156;28;20492;-59
2022/05/31 10:19:38;;;;;;;;;;;;;;;;;;6279778;28;20491;-60
2022/05/31 10:22:59;;;;;;;5.97;3.63;;;;;;;;;;6281358;28;19928;-61
2022/05/31 10:26:00;;;;;;;7.32;3.50;;;;;;;;;;6279465;28;20068;-61
2022/05/31 10:29:11;;;;;;;5.60;3.30;;;;;;;;;;6277175;28;20040;-60
2022/05/31 10:32:40;;;;;;;6.18;3.10;;;;;;;;;;6278179;28;20044;-59
2022/05/31 10:35:43;;;;;;;6.05;2.90;;;;;;;;;;6267203;28;20106;-61
2022/05/31 10:38:47;;;;;;;5.25;2.92;;;;;;;;;;6265428;28;20048;-60
2022/05/31 10:41:49;;;;;;;6.35;3.08;;;;;;;;;;6261933;28;20057;-60
2022/05/31 10:44:52;;;;;;;6.05;3.17;;;;;;;;;;6264351;28;20053;-60
2022/05/31 10:47:56;;;;;;;5.53;3.22;;;;;;;;;;6263011;28;20495;-61
2022/05/31 10:51:04;;;;;;;4.50;3.03;;;;;;;;;;6262560;28;20052;-61
2022/05/31 10:54:24;;;;;;;5.57;3.13;;;;;;;;;;6262519;28;20046;-61
2022/05/31 10:57:45;;;;;;;5.65;2.95;;;;;;;;;;6262005;28;20044;-61
2022/05/31 11:01:20;;;;;;;5.18;3.10;;;;;;;;;;6260637;28;20048;-60
2022/05/31 11:04:38;;;;;;;5.22;3.20;;;;;;;;;;6261756;28;20056;-60
2022/05/31 11:07:41;;;;;;;6.13;2.90;;;;;;;;;;6258371;28;20121;-61
2022/05/31 11:14:35;;;;;;;9.65;3.72;;;;;;;;;;6264206;28;20080;-61
2022/05/31 11:18:05;;;;;;;5.88;3.83;;;;;;;;;;6261608;28;20048;-60
2022/05/31 11:21:33;;;;;;;7.78;3.67;;;;;;;;;;6261391;28;20070;-60
2022/05/31 11:24:46;;;;;;;5.75;3.58;;;;;;;;;;6262426;28;20041;-61
2022/05/31 11:28:09;;;;;;;6.75;3.65;;;;;;;;;;6262374;28;20136;-61
2022/05/31 11:31:19;;;;;;;8.52;3.72;;;;;;;;;;6262553;28;20049;-60
2022/05/31 11:34:35;;;;;;;10.00;4.03;;;;;;;;;;6264036;28;20107;-61
2022/05/31 11:37:47;;;;;;;6.47;3.67;;;;;;;;;;6257322;28;20384;-61
2022/05/31 11:41:09;;;;;;;6.32;3.80;;;;;;;;;;6262058;28;20045;-60
2022/05/31 11:44:47;;;;;;;7.20;4.30;;;;;;;;;;6266692;28;20049;-61
2022/05/31 11:48:25;;;;;;;5.82;4.18;;;;;;;;;;6263090;28;20126;-60
2022/05/31 11:51:44;;;;;;;6.47;4.35;;;;;;;;;;6263889;28;20116;-61
2022/05/31 11:55:26;;;;;;;5.88;3.90;;;;;;;;;;6259181;28;20488;-60
2022/05/31 11:58:34;;;;;;;7.38;4.10;;;;;;;;;;6261861;28;20052;-61
2022/05/31 12:01:44;;;;;;;5.35;3.85;;;;;;;;;;6257581;28;20117;-61
2022/05/31 12:04:51;;;;;;;6.13;4.03;;;;;;;;;;6261939;28;20037;-60
2022/05/31 12:08:07;;;;;;;6.30;4.30;;;;;;;;;;6261120;28;20041;-61
2022/05/31 12:11:14;;;;;;;6.22;4.10;;;;;;;;;;6259184;28;20041;-60
2022/05/31 12:14:15;;;;;;;7.20;4.18;;;;;;;;;;6261750;28;20515;-61
2022/05/31 12:17:19;;;;;;;6.50;4.03;;;;;;;;;;6261347;28;20052;-61
2022/05/31 12:20:48;;;;;;;8.05;4.20;;;;;;;;;;6262398;28;20391;-61
2022/05/31 12:24:04;;;;;;;6.22;4.22;;;;;;;;;;6259868;28;20040;-61
2022/05/31 12:27:13;;;;;;;5.90;3.88;;;;;;;;;;6264148;28;20103;-61
2022/05/31 12:30:43;;;;;;;7.88;5.20;;;;;;;;;;6240990;28;20049;-61
2022/05/31 12:33:44;;;;;;;8.52;4.95;;;;;;;;;;6253484;28;20056;-60
2022/05/31 12:37:00;;;;;;;9.75;4.95;;;;;;;;;;6266732;28;20064;-60
2022/05/31 12:40:23;;;;;;;9.48;4.60;;;;;;;;;;6265540;28;20087;-61
2022/05/31 12:43:42;;;;;;;6.07;4.32;;;;;;;;;;6264162;28;20052;-60
2022/05/31 12:46:45;;;;;;;7.03;4.30;;;;;;;;;;6265361;28;20048;-60
2022/05/31 12:49:51;;;;;;;5.97;4.32;;;;;;;;;;6263393;28;20125;-60
2022/05/31 12:53:17;;;;;;;7.22;3.97;;;;;;;;;;6263588;28;20091;-60
2022/05/31 12:56:29;;;;;;;6.65;4.40;;;;;;;;;;6266398;28;20037;-61
2022/05/31 12:59:51;;;;;;;6.55;4.50;;;;;;;;;;6262146;28;20045;-60
2022/05/31 13:02:53;;;;;;;6.43;4.72;;;;;;;;;;6262641;28;20095;-61
2022/05/31 13:06:05;;;;;;;6.05;4.13;;;;;;;;;;6266489;28;20049;-61
2022/05/31 13:09:12;;;;;;;6.97;4.30;;;;;;;;;;6263858;28;20049;-61
2022/05/31 13:19:42;;;;;;;;;;;;;;;;;;6257557;28;20044;-60
2022/05/31 13:22:47;;;;;;;7.15;4.45;;;;;;;;;;6264344;28;19968;-61
2022/05/31 13:25:54;;;;;;;6.97;4.28;;;;;;;;;;6264120;28;20095;-61
2022/05/31 13:29:07;;;;;;;6.80;4.55;;;;;;;;;;6262398;28;20064;-60
2022/05/31 13:32:11;;;;;;;6.60;4.55;;;;;;;;;;6263838;28;20076;-60
2022/05/31 13:35:19;;;;;;;6.32;4.55;;;;;;;;;;6262631;28;20095;-60
2022/05/31 13:38:24;;;;;;;7.95;5.05;;;;;;;;;;6254895;28;20063;-60
2022/05/31 13:41:25;;;;;;;6.80;4.75;;;;;;;;;;6249662;28;20136;-60
2022/05/31 13:44:31;;;;;;;6.57;4.55;;;;;;;;;;6247224;28;20131;-60
2022/05/31 13:47:33;;;;;;;7.30;5.25;;;;;;;;;;6249126;28;20136;-60
2022/05/31 13:50:38;;;;;;;9.93;5.35;;;;;;;;;;6246112;28;20128;-60
2022/05/31 13:53:42;;;;;;;7.07;5.28;;;;;;;;;;6250261;28;20049;-60
2022/05/31 13:56:45;;;;;;;8.65;5.22;;;;;;;;;;6248461;28;20052;-60
2022/05/31 13:59:57;;;;;;;6.75;4.68;;;;;;;;;;6252094;28;20037;-60
2022/05/31 14:03:05;;;;;;;8.65;5.45;;;;;;;;;;6252418;28;20483;-60
2022/05/31 14:06:18;;;;;;;8.07;5.20;;;;;;;;;;6253907;28;20507;-60
2022/05/31 14:09:26;;;;;;;7.47;5.22;;;;;;;;;;6250322;28;20506;-60
2022/05/31 14:12:31;;;;;;;7.88;5.07;;;;;;;;;;6253465;28;20996;-60
2022/05/31 14:15:34;;;;;;;8.20;5.40;;;;;;;;;;6258052;28;20048;-61
2022/05/31 14:18:54;;;;;;;9.50;4.97;;;;;;;;;;6258324;28;20424;-60
2022/05/31 14:22:14;;;;;;;8.38;4.50;;;;;;;;;;6250706;28;20055;-61
2022/05/31 14:25:18;;;;;;;9.23;4.90;;;;;;;;;;6258755;28;20037;-60
2022/05/31 14:28:21;;;;;;;9.00;5.60;;;;;;;;;;6257674;28;20242;-60
2022/05/31 14:31:24;;;;;;;6.90;5.13;;;;;;;;;;6255809;28;20059;-61
2022/05/31 14:34:28;;;;;;;8.18;5.45;;;;;;;;;;6257120;28;20589;-61
2022/05/31 14:37:51;;;;;;;6.57;4.85;;;;;;;;;;6258748;28;20057;-61
2022/05/31 14:41:04;;;;;;;9.05;5.18;;;;;;;;;;6254135;28;20037;-60
2022/05/31 14:44:25;;;;;;;9.52;5.15;;;;;;;;;;6248495;28;20053;-60
2022/05/31 14:47:28;;;;;;;6.65;5.20;;;;;;;;;;6254779;28;20052;-60
2022/05/31 14:50:31;;;;;;;6.60;5.30;;;;;;;;;;6257877;28;20103;-61
2022/05/31 14:53:38;;;;;;;8.55;5.40;;;;;;;;;;6255323;28;20049;-61
2022/05/31 14:56:42;;;;;;;8.13;5.53;;;;;;;;;;6260573;28;20461;-62
2022/05/31 14:59:44;;;;;;;8.57;5.63;;;;;;;;;;6257262;28;20045;-61
2022/05/31 15:02:47;;;;;;;11.23;5.53;;;;;;;;;;6262403;28;20041;-61
2022/05/31 15:05:56;;;;;;;8.00;5.20;;;;;;;;;;6257781;28;20045;-60
2022/05/31 15:09:23;;;;;;;8.20;5.38;;;;;;;;;;6253104;28;20548;-61
2022/05/31 15:19:17;;;;;;;12.15;7.47;;;;;;;;;;6235334;28;20057;-61
2022/05/31 15:22:24;;;;;;;12.07;6.77;;;;;;;;;;6249746;28;20045;-61
2022/05/31 15:25:25;;;;;;;9.27;5.93;;;;;;;;;;6256123;28;20065;-60
2022/05/31 15:28:25;;;;;;;10.43;5.73;;;;;;;;;;6255644;28;20496;-62
2022/05/31 15:31:30;;;;;;;10.87;5.80;;;;;;;;;;6252234;28;20108;-59
2022/05/31 15:34:32;;;;;;;8.27;5.90;;;;;;;;;;6253196;28;20057;-60
2022/05/31 15:37:33;;;;;;;8.90;6.22;;;;;;;;;;6254327;28;20091;-60
2022/05/31 15:40:37;;;;;;;10.87;5.87;;;;;;;;;;6254775;28;20049;-60
2022/05/31 15:43:53;;;;;;;8.98;6.40;;;;;;;;;;6255194;28;20088;-61
2022/05/31 15:46:53;;;;;;;10.80;6.28;;;;;;;;;;6257346;28;20450;-60
2022/05/31 15:49:54;;;;;;;10.47;6.80;;;;;;;;;;6256397;28;20053;-60
2022/05/31 15:52:55;;;;;;;11.20;7.07;;;;;;;;;;6250408;28;20053;-61
2022/05/31 15:55:56;;;;;;;11.03;7.00;;;;;;;;;;6253166;28;20041;-60
2022/05/31 15:58:58;;;;;;;10.77;6.70;;;;;;;;;;6254659;28;20567;-60
2022/05/31 16:01:59;;;;;;;9.88;6.97;;;;;;;;;;6252165;28;20060;-61
2022/05/31 16:04:59;;;;;;;10.67;6.90;;;;;;;;;;6251831;28;20044;-60
2022/05/31 16:08:00;;;;;;;12.57;6.93;;;;;;;;;;6254392;28;20048;-61
2022/05/31 16:11:00;;;;;;;10.93;7.07;;;;;;;;;;6252803;28;20045;-61
2022/05/31 16:14:01;;;;;;;11.43;6.80;;;;;;;;;;6253135;28;20048;-60
2022/05/31 16:17:02;;;;;;;11.97;6.93;;;;;;;;;;6253764;28;20492;-60
2022/05/31 16:20:04;;;;;;;10.50;6.73;;;;;;;;;;6253823;28;20040;-60
2022/05/31 16:23:06;;;;;;;10.50;6.07;;;;;;;;;;6251531;28;20510;-61
2022/05/31 16:26:07;;;;;;;9.00;6.22;;;;;;;;;;6254857;28;20562;-61
2022/05/31 16:29:10;;;;;;;14.27;6.33;;;;;;;;;;6254326;28;20045;-68
2022/05/31 16:32:12;;;;;;;10.32;6.40;;;;;;;;;;6250768;28;20682;-60
2022/05/31 16:35:14;;;;;;;10.20;6.22;;;;;;;;;;6252003;28;20041;-60
2022/05/31 16:41:35;;;;;;;27.45;20.88;;;;;;;;;;6246963;28;20041;-60
2022/05/31 16:44:36;;;;;;;19.40;17.00;;;;;;;;;;6250566;28;20049;-60
2022/05/31 16:47:37;;;;;;;14.93;9.53;;;;;;;;;;6252038;28;20122;-61
2022/05/31 16:50:38;;;;;;;22.25;19.15;;;;;;;;;;6250831;28;20470;-60
2022/05/31 16:53:38;;;;;;;11.20;6.87;;;;;;;;;;6249703;28;20033;-60
2022/05/31 16:56:46;;;;;;;9.13;5.63;;;;;;;;;;6252708;28;20567;-61
2022/05/31 16:59:47;;;;;;;6.95;5.32;;;;;;;;;;6251727;28;20057;-60
2022/05/31 17:02:48;;;;;;;10.60;5.60;;;;;;;;;;6249989;28;20055;-61
2022/05/31 17:05:48;;;;;;;13.07;5.93;;;;;;;;;;6248125;28;20055;-61
2022/05/31 17:15:32;;;;;;;11.83;7.27;;;;;;;;;;6249870;28;20059;-61
2022/05/31 17:18:35;;;;;;;115.88;53.42;;;;;;;;;;6250484;28;20491;-59
2022/05/31 17:21:37;;;;;;;40.65;21.90;;;;;;;;;;6250276;28;20053;-61
2022/05/31 17:24:41;;;;;;;17.27;10.60;;;;;;;;;;6250519;28;20060;-62
2022/05/31 17:27:42;;;;;;;12.77;8.40;;;;;;;;;;6247157;28;20189;-61
2022/05/31 17:30:43;;;;;;;22.60;10.83;;;;;;;;;;6251031;28;20057;-61
2022/05/31 17:33:44;;;;;;;13.13;7.07;;;;;;;;;;6252285;28;20067;-61
2022/05/31 17:36:45;;;;;;;29.97;13.57;;;;;;;;;;6249475;28;21319;-60
2022/05/31 17:39:45;;;;;;;40.33;20.50;;;;;;;;;;6251941;28;20045;-61
2022/05/31 17:42:47;;;;;;;57.87;26.97;;;;;;;;;;6250623;28;20595;-61
2022/05/31 17:45:47;;;;;;;35.88;17.75;;;;;;;;;;6254325;28;20052;-62
2022/05/31 17:48:48;;;;;;;17.73;10.53;;;;;;;;;;6255198;28;20132;-61
2022/05/31 17:51:50;;;;;;;22.20;13.15;;;;;;;;;;6255390;28;20917;-62
2022/05/31 17:54:51;;;;;;;32.67;15.02;;;;;;;;;;6257426;28;20169;-61
2022/05/31 17:57:51;;;;;;;37.08;20.80;;;;;;;;;;6253877;28;20041;-61
2022/05/31 18:00:52;;;;;;;50.47;29.67;;;;;;;;;;6255596;28;20464;-60
2022/05/31 18:03:53;;;;;;;40.77;24.37;;;;;;;;;;6256363;28;20115;-60
2022/05/31 18:06:55;;;;;;;46.23;23.40;;;;;;;;;;6254561;28;20290;-61
2022/05/31 18:09:57;;;;;;;67.53;37.08;;;;;;;;;;6257120;28;20048;-61
2022/05/31 18:12:57;;;;;;;62.00;32.53;;;;;;;;;;6254553;28;20048;-61
2022/05/31 18:15:58;;;;;;;45.63;24.47;;;;;;;;;;6255347;28;20484;-60
2022/05/31 18:18:58;;;;;;;36.07;20.20;;;;;;;;;;6254974;28;20488;-61
2022/05/31 18:22:02;;;;;;;31.10;18.10;;;;;;;;;;6252798;28;20067;-61
2022/05/31 18:25:03;;;;;;;12.88;7.85;;;;;;;;;;6254067;28;20052;-60
2022/05/31 18:31:24;;;;;;;14.05;9.27;;;;;;;;;;6255742;28;20033;-61
2022/05/31 18:34:25;;;;;;;13.75;8.48;;;;;;;;;;6255089;28;20080;-60
2022/05/31 18:40:46;;;;;;;12.93;8.45;;;;;;;;;;6250969;28;20143;-61
2022/05/31 18:43:47;;;;;;;19.63;12.50;;;;;;;;;;6254691;28;20045;-61
2022/05/31 18:46:48;;;;;;;;;;;;;;;;;;6254118;28;20140;-60
2022/05/31 18:49:49;;;;;;;21.15;11.23;;;;;;;;;;6253224;28;19921;-60
2022/05/31 18:52:50;;;;;;;17.50;11.07;;;;;;;;;;6251905;28;20052;-60
2022/05/31 18:55:51;;;;;;;14.33;9.40;;;;;;;;;;6254598;28;20114;-61
2022/05/31 18:58:51;;;;;;;16.70;9.85;;;;;;;;;;6251613;28;20094;-60
2022/05/31 19:02:15;;;;;;;18.33;9.03;;;;;;;;;;6251441;28;20051;-60
2022/05/31 19:05:21;;;;;;;13.90;8.88;;;;;;;;;;6252217;28;20499;-60
2022/05/31 19:08:22;;;;;;;17.85;10.07;;;;;;;;;;6250904;28;20049;-60
2022/05/31 19:11:26;;;;;;;18.27;10.80;;;;;;;;;;6248959;28;21380;-60
2022/05/31 19:14:31;;;;;;;19.65;11.13;;;;;;;;;;6252470;28;20049;-60
2022/05/31 19:17:32;;;;;;;27.08;14.25;;;;;;;;;;6256212;28;20049;-60
2022/05/31 19:20:34;;;;;;;18.55;11.68;;;;;;;;;;6262500;28;20667;-60
2022/05/31 19:23:34;;;;;;;25.35;12.40;;;;;;;;;;6261629;28;20467;-60
2022/05/31 19:26:35;;;;;;;21.85;13.23;;;;;;;;;;6263113;28;20033;-60
2022/05/31 19:29:36;;;;;;;19.83;11.70;;;;;;;;;;6261969;28;20405;-60
2022/05/31 19:32:40;;;;;;;18.80;10.30;;;;;;;;;;6263935;28;20530;-61
2022/05/31 19:35:44;;;;;;;21.25;13.88;;;;;;;;;;6263338;28;20045;-60